sensor_id;sensor_type;location;lat;lon;timestamp;pressure;altitude;pressure_sealevel;temperature;humidity
64115;BME280;62188;35.640;139.748;2023-07-30T00:01:15;101523.49;;;32.12;40.68
64115;BME280;62188;35.640;139.748;2023-07-30T00:03:40;101525.72;;;32.06;40.91
64115;BME280;62188;35.640;139.748;2023-07-30T00:06:06;101524.27;;;31.90;39.84
64115;BME280;62188;35.640;139.748;2023-07-30T00:08:31;101527.38;;;31.86;40.60
64115;BME280;62188;35.640;139.748;2023-07-30T00:10:58;101524.99;;;31.90;40.79
64115;BME280;62188;35.640;139.748;2023-07-30T00:13:22;101527.63;;;31.97;41.03
64115;BME280;62188;35.640;139.748;2023-07-30T00:15:49;101524.81;;;32.07;40.74
64115;BME280;62188;35.640;139.748;2023-07-30T00:18:15;101525.64;;;32.27;40.60
64115;BME280;62188;35.640;139.748;2023-07-30T00:20:39;101528.81;;;31.62;41.73
64115;BME280;62188;35.640;139.748;2023-07-30T00:23:04;101523.36;;;31.94;41.94
64115;BME280;62188;35.640;139.748;2023-07-30T00:25:30;101525.11;;;32.05;42.09
64115;BME280;62188;35.640;139.748;2023-07-30T00:27:55;101523.57;;;31.66;42.39
64115;BME280;62188;35.640;139.748;2023-07-30T00:30:21;101522.07;;;31.94;42.02
64115;BME280;62188;35.640;139.748;2023-07-30T00:32:46;101525.23;;;31.79;41.98
64115;BME280;62188;35.640;139.748;2023-07-30T00:35:11;101532.09;;;31.72;42.04
64115;BME280;62188;35.640;139.748;2023-07-30T00:37:36;101535.97;;;31.61;42.31
64115;BME280;62188;35.640;139.748;2023-07-30T00:40:02;101526.04;;;31.79;41.43
64115;BME280;62188;35.640;139.748;2023-07-30T00:42:26;101534.89;;;32.03;41.31
64115;BME280;62188;35.640;139.748;2023-07-30T00:44:52;101538.87;;;31.69;40.86
64115;BME280;62188;35.640;139.748;2023-07-30T00:47:17;101539.24;;;31.20;41.26
64115;BME280;62188;35.640;139.748;2023-07-30T00:49:42;101541.63;;;31.59;41.27
64115;BME280;62188;35.640;139.748;2023-07-30T00:52:08;101543.96;;;31.72;40.94
64115;BME280;62188;35.640;139.748;2023-07-30T00:54:33;101540.67;;;31.31;40.98
64115;BME280;62188;35.640;139.748;2023-07-30T00:56:58;101534.29;;;31.17;40.49
64115;BME280;62188;35.640;139.748;2023-07-30T00:59:24;101533.84;;;31.70;40.79
64115;BME280;62188;35.640;139.748;2023-07-30T01:01:52;101528.77;;;31.46;40.34
64115;BME280;62188;35.640;139.748;2023-07-30T01:04:15;101524.33;;;31.88;41.24
64115;BME280;62188;35.640;139.748;2023-07-30T01:06:40;101525.39;;;31.81;40.55
64115;BME280;62188;35.640;139.748;2023-07-30T01:09:05;101523.54;;;31.36;41.10
64115;BME280;62188;35.640;139.748;2023-07-30T01:11:30;101520.55;;;31.36;40.64
64115;BME280;62188;35.640;139.748;2023-07-30T01:13:56;101522.94;;;31.64;40.69
64115;BME280;62188;35.640;139.748;2023-07-30T01:16:21;101516.47;;;31.77;39.70
64115;BME280;62188;35.640;139.748;2023-07-30T01:18:46;101518.34;;;32.17;39.88
64115;BME280;62188;35.640;139.748;2023-07-30T01:21:12;101525.17;;;31.50;39.58
64115;BME280;62188;35.640;139.748;2023-07-30T01:23:36;101513.24;;;32.08;39.56
64115;BME280;62188;35.640;139.748;2023-07-30T01:26:07;101514.51;;;31.50;40.70
64115;BME280;62188;35.640;139.748;2023-07-30T01:28:28;101509.93;;;32.11;40.38
64115;BME280;62188;35.640;139.748;2023-07-30T01:30:53;101506.05;;;32.16;39.74
64115;BME280;62188;35.640;139.748;2023-07-30T01:33:17;101504.93;;;32.29;39.21
64115;BME280;62188;35.640;139.748;2023-07-30T01:35:44;101504.98;;;32.19;37.65
64115;BME280;62188;35.640;139.748;2023-07-30T01:38:09;101496.29;;;32.02;37.99
64115;BME280;62188;35.640;139.748;2023-07-30T01:40:33;101497.10;;;32.27;37.51
64115;BME280;62188;35.640;139.748;2023-07-30T01:42:59;101498.84;;;32.31;36.68
64115;BME280;62188;35.640;139.748;2023-07-30T01:45:24;101501.57;;;32.53;36.48
64115;BME280;62188;35.640;139.748;2023-07-30T01:47:49;101502.91;;;32.29;35.71
64115;BME280;62188;35.640;139.748;2023-07-30T01:50:15;101497.99;;;32.07;35.77
64115;BME280;62188;35.640;139.748;2023-07-30T01:52:39;101494.68;;;32.42;35.35
64115;BME280;62188;35.640;139.748;2023-07-30T01:55:05;101491.23;;;32.12;36.01
64115;BME280;62188;35.640;139.748;2023-07-30T01:57:30;101495.43;;;30.92;39.39
64115;BME280;62188;35.640;139.748;2023-07-30T01:59:55;101496.00;;;31.61;40.29
64115;BME280;62188;35.640;139.748;2023-07-30T02:02:21;101497.78;;;31.40;42.02
64115;BME280;62188;35.640;139.748;2023-07-30T02:04:45;101487.81;;;31.27;41.75
64115;BME280;62188;35.640;139.748;2023-07-30T02:07:11;101481.34;;;31.61;41.38
64115;BME280;62188;35.640;139.748;2023-07-30T02:09:36;101479.08;;;32.08;40.31
64115;BME280;62188;35.640;139.748;2023-07-30T02:12:01;101478.98;;;32.05;39.22
64115;BME280;62188;35.640;139.748;2023-07-30T02:14:27;101473.48;;;31.92;38.95
64115;BME280;62188;35.640;139.748;2023-07-30T02:16:52;101466.38;;;32.47;37.99
64115;BME280;62188;35.640;139.748;2023-07-30T02:19:17;101470.53;;;31.96;38.95
64115;BME280;62188;35.640;139.748;2023-07-30T02:21:43;101466.44;;;32.16;39.95
64115;BME280;62188;35.640;139.748;2023-07-30T02:24:08;101459.09;;;32.56;39.78
64115;BME280;62188;35.640;139.748;2023-07-30T02:26:33;101458.82;;;32.45;38.77
64115;BME280;62188;35.640;139.748;2023-07-30T02:28:58;101456.19;;;32.26;39.41
64115;BME280;62188;35.640;139.748;2023-07-30T02:31:24;101448.90;;;33.00;39.58
64115;BME280;62188;35.640;139.748;2023-07-30T02:33:49;101453.95;;;32.74;39.74
64115;BME280;62188;35.640;139.748;2023-07-30T02:36:14;101450.88;;;32.99;39.53
64115;BME280;62188;35.640;139.748;2023-07-30T02:38:39;101441.47;;;32.15;40.36
64115;BME280;62188;35.640;139.748;2023-07-30T02:41:04;101439.42;;;32.69;40.34
64115;BME280;62188;35.640;139.748;2023-07-30T02:43:29;101434.32;;;32.59;40.39
64115;BME280;62188;35.640;139.748;2023-07-30T02:45:55;101424.98;;;32.39;40.30
64115;BME280;62188;35.640;139.748;2023-07-30T02:48:20;101427.09;;;32.38;40.39
64115;BME280;62188;35.640;139.748;2023-07-30T02:50:46;101430.51;;;32.66;40.08
64115;BME280;62188;35.640;139.748;2023-07-30T02:53:10;101425.95;;;32.05;39.82
64115;BME280;62188;35.640;139.748;2023-07-30T02:55:37;101420.03;;;31.94;40.76
64115;BME280;62188;35.640;139.748;2023-07-30T02:58:01;101416.79;;;32.04;40.71
64115;BME280;62188;35.640;139.748;2023-07-30T03:00:26;101416.11;;;32.63;40.37
64115;BME280;62188;35.640;139.748;2023-07-30T03:02:52;101415.24;;;32.51;39.53
64115;BME280;62188;35.640;139.748;2023-07-30T03:05:16;101410.88;;;33.07;39.57
64115;BME280;62188;35.640;139.748;2023-07-30T03:07:43;101404.88;;;33.28;39.40
64115;BME280;62188;35.640;139.748;2023-07-30T03:10:08;101395.15;;;32.72;39.81
64115;BME280;62188;35.640;139.748;2023-07-30T03:12:32;101394.87;;;32.64;40.21
64115;BME280;62188;35.640;139.748;2023-07-30T03:14:58;101388.78;;;32.93;39.57
64115;BME280;62188;35.640;139.748;2023-07-30T03:17:24;101394.36;;;33.23;39.74
64115;BME280;62188;35.640;139.748;2023-07-30T03:19:48;101387.56;;;32.67;40.30
64115;BME280;62188;35.640;139.748;2023-07-30T03:22:13;101385.45;;;32.74;40.18
64115;BME280;62188;35.640;139.748;2023-07-30T03:24:39;101383.71;;;32.93;40.62
64115;BME280;62188;35.640;139.748;2023-07-30T03:27:04;101383.38;;;32.89;40.55
64115;BME280;62188;35.640;139.748;2023-07-30T03:29:29;101383.46;;;33.34;40.29
64115;BME280;62188;35.640;139.748;2023-07-30T03:31:55;101380.51;;;32.95;40.05
64115;BME280;62188;35.640;139.748;2023-07-30T03:34:20;101375.62;;;32.85;41.18
64115;BME280;62188;35.640;139.748;2023-07-30T03:36:45;101375.51;;;32.49;42.12
64115;BME280;62188;35.640;139.748;2023-07-30T03:39:10;101365.81;;;32.34;42.10
64115;BME280;62188;35.640;139.748;2023-07-30T03:41:36;101362.53;;;32.44;42.04
64115;BME280;62188;35.640;139.748;2023-07-30T03:44:01;101359.33;;;32.57;40.86
64115;BME280;62188;35.640;139.748;2023-07-30T03:46:27;101353.99;;;32.74;41.08
64115;BME280;62188;35.640;139.748;2023-07-30T03:48:52;101358.38;;;32.50;42.19
64115;BME280;62188;35.640;139.748;2023-07-30T03:51:17;101350.27;;;32.84;41.93
64115;BME280;62188;35.640;139.748;2023-07-30T03:53:43;101346.60;;;32.36;42.15
64115;BME280;62188;35.640;139.748;2023-07-30T03:56:08;101342.80;;;32.59;41.93
64115;BME280;62188;35.640;139.748;2023-07-30T03:58:33;101340.66;;;32.44;41.76
64115;BME280;62188;35.640;139.748;2023-07-30T04:00:58;101343.58;;;32.45;42.18
64115;BME280;62188;35.640;139.748;2023-07-30T04:03:24;101335.68;;;32.66;42.12
64115;BME280;62188;35.640;139.748;2023-07-30T04:05:48;101334.32;;;33.13;41.35
64115;BME280;62188;35.640;139.748;2023-07-30T04:08:15;101330.61;;;32.91;41.52
64115;BME280;62188;35.640;139.748;2023-07-30T04:10:39;101332.39;;;32.91;41.22
64115;BME280;62188;35.640;139.748;2023-07-30T04:13:04;101325.63;;;32.51;41.71
64115;BME280;62188;35.640;139.748;2023-07-30T04:15:30;101328.40;;;32.86;41.35
64115;BME280;62188;35.640;139.748;2023-07-30T04:17:55;101320.36;;;32.76;41.74
64115;BME280;62188;35.640;139.748;2023-07-30T04:20:20;101320.26;;;32.89;41.35
64115;BME280;62188;35.640;139.748;2023-07-30T04:22:45;101319.44;;;33.19;41.22
64115;BME280;62188;35.640;139.748;2023-07-30T04:25:11;101314.91;;;32.70;41.46
64115;BME280;62188;35.640;139.748;2023-07-30T04:27:36;101314.95;;;32.77;41.68
64115;BME280;62188;35.640;139.748;2023-07-30T04:30:01;101318.35;;;32.62;41.81
64115;BME280;62188;35.640;139.748;2023-07-30T04:32:26;101313.93;;;32.64;41.76
64115;BME280;62188;35.640;139.748;2023-07-30T04:34:52;101314.00;;;32.59;41.70
64115;BME280;62188;35.640;139.748;2023-07-30T04:37:17;101315.92;;;32.45;41.80
64115;BME280;62188;35.640;139.748;2023-07-30T04:39:42;101325.00;;;32.81;41.18
64115;BME280;62188;35.640;139.748;2023-07-30T04:42:07;101319.20;;;32.97;41.01
64115;BME280;62188;35.640;139.748;2023-07-30T04:44:32;101316.75;;;32.78;41.54
64115;BME280;62188;35.640;139.748;2023-07-30T04:46:57;101313.15;;;32.68;41.87
64115;BME280;62188;35.640;139.748;2023-07-30T04:49:23;101307.51;;;32.64;42.26
64115;BME280;62188;35.640;139.748;2023-07-30T04:51:48;101310.90;;;32.70;42.42
64115;BME280;62188;35.640;139.748;2023-07-30T04:54:13;101305.09;;;32.52;42.58
64115;BME280;62188;35.640;139.748;2023-07-30T04:56:39;101306.55;;;32.52;42.62
64115;BME280;62188;35.640;139.748;2023-07-30T04:59:04;101310.65;;;31.91;43.43
64115;BME280;62188;35.640;139.748;2023-07-30T05:01:30;101301.52;;;31.68;44.19
64115;BME280;62188;35.640;139.748;2023-07-30T05:03:55;101293.89;;;31.74;44.15
64115;BME280;62188;35.640;139.748;2023-07-30T05:06:20;101293.81;;;32.00;44.03
64115;BME280;62188;35.640;139.748;2023-07-30T05:08:45;101294.30;;;31.90;44.73
64115;BME280;62188;35.640;139.748;2023-07-30T05:11:11;101287.88;;;31.36;45.56
64115;BME280;62188;35.640;139.748;2023-07-30T05:13:35;101280.78;;;31.93;44.82
64115;BME280;62188;35.640;139.748;2023-07-30T05:16:00;101281.66;;;32.34;44.11
64115;BME280;62188;35.640;139.748;2023-07-30T05:18:26;101283.14;;;32.22;43.70
64115;BME280;62188;35.640;139.748;2023-07-30T05:20:51;101279.99;;;31.39;44.51
64115;BME280;62188;35.640;139.748;2023-07-30T05:23:17;101276.76;;;31.30;45.29
64115;BME280;62188;35.640;139.748;2023-07-30T05:25:42;101271.02;;;31.70;45.39
64115;BME280;62188;35.640;139.748;2023-07-30T05:28:07;101277.11;;;31.88;45.11
64115;BME280;62188;35.640;139.748;2023-07-30T05:30:32;101271.94;;;31.48;45.26
64115;BME280;62188;35.640;139.748;2023-07-30T05:32:58;101280.73;;;31.17;45.34
64115;BME280;62188;35.640;139.748;2023-07-30T05:35:23;101274.67;;;31.59;44.96
64115;BME280;62188;35.640;139.748;2023-07-30T05:37:48;101273.63;;;31.61;44.92
64115;BME280;62188;35.640;139.748;2023-07-30T05:40:14;101272.35;;;31.40;45.20
64115;BME280;62188;35.640;139.748;2023-07-30T05:42:39;101279.14;;;31.15;45.82
64115;BME280;62188;35.640;139.748;2023-07-30T05:45:04;101275.27;;;31.00;45.98
64115;BME280;62188;35.640;139.748;2023-07-30T05:47:30;101272.24;;;31.71;45.13
64115;BME280;62188;35.640;139.748;2023-07-30T05:49:55;101268.81;;;31.43;45.71
64115;BME280;62188;35.640;139.748;2023-07-30T05:52:20;101271.29;;;31.61;46.13
64115;BME280;62188;35.640;139.748;2023-07-30T05:54:45;101273.01;;;31.30;46.02
64115;BME280;62188;35.640;139.748;2023-07-30T05:57:11;101278.32;;;30.63;46.95
64115;BME280;62188;35.640;139.748;2023-07-30T05:59:35;101268.68;;;31.10;46.71
64115;BME280;62188;35.640;139.748;2023-07-30T06:02:04;101264.89;;;31.04;46.70
64115;BME280;62188;35.640;139.748;2023-07-30T06:04:27;101267.79;;;30.69;47.73
64115;BME280;62188;35.640;139.748;2023-07-30T06:06:51;101274.28;;;31.48;47.55
64115;BME280;62188;35.640;139.748;2023-07-30T06:09:17;101262.19;;;31.31;46.88
64115;BME280;62188;35.640;139.748;2023-07-30T06:11:42;101269.01;;;30.56;47.91
64115;BME280;62188;35.640;139.748;2023-07-30T06:14:08;101270.06;;;30.85;48.03
64115;BME280;62188;35.640;139.748;2023-07-30T06:16:33;101254.28;;;30.64;48.25
64115;BME280;62188;35.640;139.748;2023-07-30T06:18:58;101258.00;;;30.83;48.38
64115;BME280;62188;35.640;139.748;2023-07-30T06:21:23;101248.76;;;30.88;48.42
64115;BME280;62188;35.640;139.748;2023-07-30T06:23:48;101257.19;;;30.54;49.43
64115;BME280;62188;35.640;139.748;2023-07-30T06:26:14;101254.82;;;30.83;49.32
64115;BME280;62188;35.640;139.748;2023-07-30T06:28:39;101250.47;;;30.83;49.00
64115;BME280;62188;35.640;139.748;2023-07-30T06:31:05;101245.95;;;31.15;48.95
64115;BME280;62188;35.640;139.748;2023-07-30T06:33:29;101248.69;;;31.21;48.42
64115;BME280;62188;35.640;139.748;2023-07-30T06:35:55;101252.54;;;30.91;48.18
64115;BME280;62188;35.640;139.748;2023-07-30T06:38:21;101252.61;;;31.17;48.79
64115;BME280;62188;35.640;139.748;2023-07-30T06:40:46;101245.05;;;31.16;48.94
64115;BME280;62188;35.640;139.748;2023-07-30T06:43:11;101249.64;;;30.83;49.26
64115;BME280;62188;35.640;139.748;2023-07-30T06:45:36;101243.92;;;30.85;49.05
64115;BME280;62188;35.640;139.748;2023-07-30T06:48:02;101259.57;;;30.72;49.52
64115;BME280;62188;35.640;139.748;2023-07-30T06:50:27;101253.11;;;30.46;49.66
64115;BME280;62188;35.640;139.748;2023-07-30T06:52:52;101253.39;;;30.54;49.62
64115;BME280;62188;35.640;139.748;2023-07-30T06:55:18;101262.86;;;30.28;49.74
64115;BME280;62188;35.640;139.748;2023-07-30T06:57:44;101250.71;;;30.16;50.56
64115;BME280;62188;35.640;139.748;2023-07-30T07:00:11;101256.34;;;30.57;50.15
64115;BME280;62188;35.640;139.748;2023-07-30T07:02:34;101249.20;;;30.25;49.98
64115;BME280;62188;35.640;139.748;2023-07-30T07:04:59;101253.69;;;30.43;49.74
64115;BME280;62188;35.640;139.748;2023-07-30T07:07:24;101250.69;;;30.49;49.24
64115;BME280;62188;35.640;139.748;2023-07-30T07:09:50;101246.69;;;30.50;49.16
64115;BME280;62188;35.640;139.748;2023-07-30T07:12:15;101244.88;;;30.22;49.93
64115;BME280;62188;35.640;139.748;2023-07-30T07:14:40;101248.98;;;30.82;48.09
64115;BME280;62188;35.640;139.748;2023-07-30T07:17:06;101258.39;;;30.72;48.31
64115;BME280;62188;35.640;139.748;2023-07-30T07:19:30;101256.49;;;30.21;49.11
64115;BME280;62188;35.640;139.748;2023-07-30T07:21:56;101243.70;;;30.07;49.54
64115;BME280;62188;35.640;139.748;2023-07-30T07:24:21;101247.55;;;30.39;49.54
64115;BME280;62188;35.640;139.748;2023-07-30T07:26:46;101250.76;;;30.83;48.57
64115;BME280;62188;35.640;139.748;2023-07-30T07:29:12;101252.47;;;30.26;49.04
64115;BME280;62188;35.640;139.748;2023-07-30T07:31:37;101246.12;;;30.00;50.30
64115;BME280;62188;35.640;139.748;2023-07-30T07:34:02;101248.38;;;30.56;50.00
64115;BME280;62188;35.640;139.748;2023-07-30T07:36:27;101256.31;;;30.52;49.03
64115;BME280;62188;35.640;139.748;2023-07-30T07:38:53;101247.62;;;30.66;48.88
64115;BME280;62188;35.640;139.748;2023-07-30T07:41:18;101249.01;;;30.99;48.90
64115;BME280;62188;35.640;139.748;2023-07-30T07:43:43;101255.07;;;30.85;48.47
64115;BME280;62188;35.640;139.748;2023-07-30T07:46:08;101253.34;;;30.85;49.27
64115;BME280;62188;35.640;139.748;2023-07-30T07:48:34;101251.29;;;31.30;47.23
64115;BME280;62188;35.640;139.748;2023-07-30T07:50:59;101248.45;;;30.78;47.94
64115;BME280;62188;35.640;139.748;2023-07-30T07:53:24;101248.41;;;31.13;47.80
64115;BME280;62188;35.640;139.748;2023-07-30T07:55:50;101250.54;;;31.28;47.33
64115;BME280;62188;35.640;139.748;2023-07-30T07:58:15;101252.54;;;30.99;48.96
64115;BME280;62188;35.640;139.748;2023-07-30T08:00:40;101249.29;;;30.47;49.34
64115;BME280;62188;35.640;139.748;2023-07-30T08:03:06;101264.77;;;31.14;49.24
64115;BME280;62188;35.640;139.748;2023-07-30T08:05:31;101264.56;;;30.34;49.59
64115;BME280;62188;35.640;139.748;2023-07-30T08:07:56;101261.17;;;30.21;49.91
64115;BME280;62188;35.640;139.748;2023-07-30T08:10:21;101254.91;;;30.39;49.66
64115;BME280;62188;35.640;139.748;2023-07-30T08:12:47;101261.48;;;30.30;50.17
64115;BME280;62188;35.640;139.748;2023-07-30T08:15:12;101254.03;;;30.58;50.43
64115;BME280;62188;35.640;139.748;2023-07-30T08:17:37;101260.15;;;30.38;50.82
64115;BME280;62188;35.640;139.748;2023-07-30T08:20:02;101260.29;;;30.38;50.91
64115;BME280;62188;35.640;139.748;2023-07-30T08:22:28;101252.92;;;30.49;50.16
64115;BME280;62188;35.640;139.748;2023-07-30T08:24:53;101253.77;;;30.28;50.85
64115;BME280;62188;35.640;139.748;2023-07-30T08:27:18;101262.69;;;29.68;51.40
64115;BME280;62188;35.640;139.748;2023-07-30T08:29:43;101261.82;;;29.70;51.78
64115;BME280;62188;35.640;139.748;2023-07-30T08:32:09;101255.00;;;29.83;51.77
64115;BME280;62188;35.640;139.748;2023-07-30T08:34:34;101263.47;;;29.44;51.92
64115;BME280;62188;35.640;139.748;2023-07-30T08:36:59;101264.48;;;29.74;51.83
64115;BME280;62188;35.640;139.748;2023-07-30T08:39:25;101263.03;;;29.79;51.79
64115;BME280;62188;35.640;139.748;2023-07-30T08:41:50;101266.95;;;29.37;52.30
64115;BME280;62188;35.640;139.748;2023-07-30T08:44:15;101266.17;;;29.81;51.31
64115;BME280;62188;35.640;139.748;2023-07-30T08:46:40;101261.00;;;29.67;51.67
64115;BME280;62188;35.640;139.748;2023-07-30T08:49:06;101262.95;;;30.15;51.06
64115;BME280;62188;35.640;139.748;2023-07-30T08:51:33;101259.02;;;29.86;51.74
64115;BME280;62188;35.640;139.748;2023-07-30T08:53:58;101267.62;;;29.76;51.27
64115;BME280;62188;35.640;139.748;2023-07-30T08:56:21;101274.89;;;29.57;51.48
64115;BME280;62188;35.640;139.748;2023-07-30T08:58:47;101272.38;;;29.41;51.81
64115;BME280;62188;35.640;139.748;2023-07-30T09:01:13;101273.40;;;29.72;51.76
64115;BME280;62188;35.640;139.748;2023-07-30T09:03:39;101273.72;;;29.23;52.61
64115;BME280;62188;35.640;139.748;2023-07-30T09:06:03;101275.60;;;29.35;52.68
64115;BME280;62188;35.640;139.748;2023-07-30T09:08:27;101273.97;;;29.73;51.66
64115;BME280;62188;35.640;139.748;2023-07-30T09:10:53;101274.79;;;29.87;51.67
64115;BME280;62188;35.640;139.748;2023-07-30T09:13:22;101272.29;;;29.67;51.64
64115;BME280;62188;35.640;139.748;2023-07-30T09:15:43;101273.85;;;29.71;52.31
64115;BME280;62188;35.640;139.748;2023-07-30T09:18:09;101277.43;;;29.75;51.99
64115;BME280;62188;35.640;139.748;2023-07-30T09:20:39;101282.77;;;29.62;51.39
64115;BME280;62188;35.640;139.748;2023-07-30T09:22:59;101285.89;;;29.84;51.36
64115;BME280;62188;35.640;139.748;2023-07-30T09:25:24;101287.52;;;30.09;51.15
64115;BME280;62188;35.640;139.748;2023-07-30T09:27:51;101290.64;;;30.09;50.53
64115;BME280;62188;35.640;139.748;2023-07-30T09:30:16;101296.38;;;30.17;50.61
64115;BME280;62188;35.640;139.748;2023-07-30T09:32:40;101299.36;;;29.24;52.07
64115;BME280;62188;35.640;139.748;2023-07-30T09:35:07;101300.33;;;29.24;52.76
64115;BME280;62188;35.640;139.748;2023-07-30T09:37:31;101304.14;;;29.59;52.43
64115;BME280;62188;35.640;139.748;2023-07-30T09:39:58;101309.95;;;29.32;52.71
64115;BME280;62188;35.640;139.748;2023-07-30T09:42:22;101310.68;;;29.92;52.29
64115;BME280;62188;35.640;139.748;2023-07-30T09:44:48;101323.52;;;28.66;53.09
64115;BME280;62188;35.640;139.748;2023-07-30T09:47:12;101317.37;;;29.11;53.40
64115;BME280;62188;35.640;139.748;2023-07-30T09:49:38;101323.52;;;29.31;52.92
64115;BME280;62188;35.640;139.748;2023-07-30T09:52:04;101316.15;;;29.46;53.32
64115;BME280;62188;35.640;139.748;2023-07-30T09:54:28;101314.30;;;29.15;53.22
64115;BME280;62188;35.640;139.748;2023-07-30T09:56:54;101314.09;;;28.90;53.66
64115;BME280;62188;35.640;139.748;2023-07-30T09:59:19;101318.03;;;29.26;53.12
64115;BME280;62188;35.640;139.748;2023-07-30T10:01:46;101321.50;;;29.54;53.61
64115;BME280;62188;35.640;139.748;2023-07-30T10:04:11;101321.00;;;29.79;52.80
64115;BME280;62188;35.640;139.748;2023-07-30T10:06:38;101330.05;;;29.23;53.80
64115;BME280;62188;35.640;139.748;2023-07-30T10:09:00;101332.43;;;29.58;52.36
64115;BME280;62188;35.640;139.748;2023-07-30T10:11:26;101333.30;;;29.70;52.99
64115;BME280;62188;35.640;139.748;2023-07-30T10:13:51;101342.57;;;29.68;52.76
64115;BME280;62188;35.640;139.748;2023-07-30T10:16:16;101339.22;;;29.52;52.16
64115;BME280;62188;35.640;139.748;2023-07-30T10:18:42;101338.14;;;29.55;52.48
64115;BME280;62188;35.640;139.748;2023-07-30T10:21:08;101344.73;;;29.47;53.00
64115;BME280;62188;35.640;139.748;2023-07-30T10:23:34;101350.31;;;29.43;52.71
64115;BME280;62188;35.640;139.748;2023-07-30T10:25:57;101350.25;;;29.11;53.52
64115;BME280;62188;35.640;139.748;2023-07-30T10:28:33;101359.62;;;29.41;52.63
64115;BME280;62188;35.640;139.748;2023-07-30T10:30:55;101359.61;;;29.32;53.62
64115;BME280;62188;35.640;139.748;2023-07-30T10:33:14;101367.96;;;29.61;53.13
64115;BME280;62188;35.640;139.748;2023-07-30T10:35:40;101367.35;;;28.77;54.65
64115;BME280;62188;35.640;139.748;2023-07-30T10:40:30;101380.02;;;28.85;54.55
64115;BME280;62188;35.640;139.748;2023-07-30T10:42:54;101381.66;;;28.67;54.91
64115;BME280;62188;35.640;139.748;2023-07-30T10:45:20;101384.97;;;28.41;55.39
64115;BME280;62188;35.640;139.748;2023-07-30T10:47:44;101382.95;;;28.66;55.02
64115;BME280;62188;35.640;139.748;2023-07-30T10:50:10;101386.16;;;29.12;54.22
64115;BME280;62188;35.640;139.748;2023-07-30T10:52:36;101390.61;;;28.78;54.93
64115;BME280;62188;35.640;139.748;2023-07-30T10:55:02;101388.95;;;28.99;54.26
64115;BME280;62188;35.640;139.748;2023-07-30T10:57:29;101385.20;;;29.17;53.93
64115;BME280;62188;35.640;139.748;2023-07-30T10:59:50;101392.29;;;29.27;54.03
64115;BME280;62188;35.640;139.748;2023-07-30T11:02:16;101388.66;;;28.99;53.48
64115;BME280;62188;35.640;139.748;2023-07-30T11:04:41;101393.48;;;29.52;53.90
64115;BME280;62188;35.640;139.748;2023-07-30T11:07:06;101397.38;;;28.89;53.82
64115;BME280;62188;35.640;139.748;2023-07-30T11:09:31;101396.27;;;29.09;54.00
64115;BME280;62188;35.640;139.748;2023-07-30T11:11:57;101398.52;;;29.33;52.99
64115;BME280;62188;35.640;139.748;2023-07-30T11:14:24;101402.06;;;28.93;53.88
64115;BME280;62188;35.640;139.748;2023-07-30T11:16:51;101401.35;;;29.61;53.27
64115;BME280;62188;35.640;139.748;2023-07-30T11:19:12;101406.50;;;29.51;52.72
64115;BME280;62188;35.640;139.748;2023-07-30T11:21:44;101407.89;;;29.59;52.67
64115;BME280;62188;35.640;139.748;2023-07-30T11:24:03;101412.83;;;29.64;52.51
64115;BME280;62188;35.640;139.748;2023-07-30T11:26:28;101414.46;;;29.19;53.25
64115;BME280;62188;35.640;139.748;2023-07-30T11:28:53;101416.19;;;29.13;53.41
64115;BME280;62188;35.640;139.748;2023-07-30T11:31:20;101415.90;;;29.77;52.93
64115;BME280;62188;35.640;139.748;2023-07-30T11:33:45;101418.51;;;29.27;52.99
64115;BME280;62188;35.640;139.748;2023-07-30T11:36:11;101421.50;;;29.44;53.04
64115;BME280;62188;35.640;139.748;2023-07-30T11:38:35;101421.48;;;29.54;52.48
64115;BME280;62188;35.640;139.748;2023-07-30T11:41:01;101421.24;;;28.93;53.30
64115;BME280;62188;35.640;139.748;2023-07-30T11:43:26;101425.18;;;29.08;53.68
64115;BME280;62188;35.640;139.748;2023-07-30T11:48:17;101425.01;;;29.46;52.99
64115;BME280;62188;35.640;139.748;2023-07-30T11:50:46;101428.01;;;29.60;52.52
64115;BME280;62188;35.640;139.748;2023-07-30T11:53:07;101426.98;;;29.43;52.61
64115;BME280;62188;35.640;139.748;2023-07-30T11:55:37;101426.03;;;29.49;52.55
64115;BME280;62188;35.640;139.748;2023-07-30T11:57:59;101426.28;;;29.46;52.04
64115;BME280;62188;35.640;139.748;2023-07-30T12:00:23;101424.64;;;29.25;52.79
64115;BME280;62188;35.640;139.748;2023-07-30T12:02:48;101423.94;;;29.38;52.47
64115;BME280;62188;35.640;139.748;2023-07-30T12:05:13;101425.05;;;28.93;53.49
64115;BME280;62188;35.640;139.748;2023-07-30T12:07:42;101425.88;;;28.93;53.55
64115;BME280;62188;35.640;139.748;2023-07-30T12:10:11;101431.62;;;29.36;52.55
64115;BME280;62188;35.640;139.748;2023-07-30T12:12:29;101426.73;;;29.10;52.17
64115;BME280;62188;35.640;139.748;2023-07-30T12:14:55;101429.34;;;29.27;52.11
64115;BME280;62188;35.640;139.748;2023-07-30T12:17:20;101430.91;;;29.45;52.64
64115;BME280;62188;35.640;139.748;2023-07-30T12:19:45;101428.82;;;29.55;51.25
64115;BME280;62188;35.640;139.748;2023-07-30T12:22:11;101431.80;;;29.32;51.95
64115;BME280;62188;35.640;139.748;2023-07-30T12:24:35;101435.10;;;29.67;51.89